Valletta, Malta

1:44 AM CEST on August 23, 2014 (GMT +0200)
Zabbar | Change Station
CLOSE
Current Station
Personal Weather Station
Location: Zabbar,
Elevation: 138 ft
Nearby Weather Stations

Elev 138 ft 35.88 °N, 14.54 °E | Updated 7 seconds ago

Partly Cloudy
Partly Cloudy
78.3 °F
Feels Like 82 °F
N
0.2
Wind Variable Wind from NE
Gusts 2.5 mph

Today
High -- | Low -- °F
--% Chance of Precip.
Yesterday
High -- | Low -- °F
Precip. -- in
6:26 AM 7:42 PM
Waning Crescent, 6% visible
Pressure 29.98 in
Visibility 3.1 miles
Clouds Few 1900 ft
Heat Index 82 °F
Dew Point 78 °F
Humidity 99%
Rainfall 0.00 in
Snow Depth Not available.
UV 0.0 out of 12
Pollen Not available.
Air Quality Not available.
Flu Activity Not available.
METAR LMML 222315Z AUTO 05003KT 5000NDV BR FEW019/// 25/24 Q1015

More Conditions Fewer Conditions

Pressure 29.98 in
Visibility 3.1 miles
Clouds Few 1900 ft
Heat Index 82 °F
Dew Point 78 °F
Humidity 99%
Rainfall 0.00 in
Snow Depth Not available.
UV 0.0 out of 12
Pollen Not available.
Air Quality Not available.
Flu Activity Not available.
METAR LMML 222315Z AUTO 05003KT 5000NDV BR FEW019/// 25/24 Q1015

More Conditions Fewer Conditions

10-Day Weather Forecast

Almanac

Astronomy

Aug. 23, 2014 Rise Set
Actual Time 6:26 AM CEST 7:42 PM CEST
Civil Twilight 5:59 AM CEST 8:08 PM CEST
Nautical Twilight 5:28 AM CEST 8:40 PM CEST
Astronomical Twilight 4:54 AM CEST 9:13 PM CEST
Moon 4:28 AM CEST (8/23) 6:15 PM CEST (8/23)
Length of Visible Light 14h 08m
Length of Day
13h 15m
Tomorrow will be 2m 6s shorter.
Waning Crescent, 6% of the Moon is Illuminated
Aug 22
Waning Crescent
Aug 25
New
Sep 2
First Quarter
Sep 8
Full
Sep 15
Last Quarter

Yesterday's Extremes

Country Highs Country Lows

Community

WunderPhotos

Upload Photos

1,746,310 photos uploaded!

WunderBlogs® & News

By Dr. Jeff Masters
Director of Meteorology, Weather Underground
By Kari Strenfel
Meteorologist, Weather Underground
By Christopher C. Burt
Weather Historian, Weather Underground
August 22, 2014
August 22, 2014
August 22, 2014

Nearby

Snow Depth

Not available.

Earthquake Activity

City Distance Mag. Time & Date
No recent earthquake activity has been reported nearby.
Minimum magnitude displayed is 2.5.

Coastal Water Temperatures

Place Temperature
No Stations Reporting

Nearby Weather Stations